»·PEaware :: N80678 L52-L88

N80678 :: L52-L88

FLIGHT INFORMATION

Flight Status: Arrived
Operator: Privately registered:
United States
More flights under this callsign
Pilot: Isaac M. (22798)
Aircraft: CESSNA 172 SKYHAWK
(C172)
More flights by this aircraft type
Origin: L52 Oceano Co
United States
Destination: L88 New Cuyama
United States
More flights between these airports :: More routes between these airports
Route: L52 L88
File this flight plan on PilotEdge
Remarks: L52 L88
Altitude:
(Current/Filed)
5,500ft
Speed:
(Current/Filed)
115kts
Departed: 05-Jan-19 12:49 PM
Arrived: 05-Jan-19 01:23 PM
Distance/Time
Traveled:
161nm/0:34
Distance/Time
To Go:
Arrived

Flight Plot

Page will automatically refresh every two minutes.


Map Options




Map Legend


Flown Route
Filed Route
Departure Airport
Arrival Airport
Navaid (VOR, NDB)
Fix

Horizontal Profiles

Position Reports

Time Latitude Longitude Heading Altitude Ground
Speed
05-Jan-19 12:42 35.103551 -120.624285 211 18ft 0kts
05-Jan-19 12:43 35.103551 -120.624285 211 18ft 0kts
05-Jan-19 12:44 35.103551 -120.624285 211 18ft 0kts
05-Jan-19 12:45 35.103551 -120.624285 211 18ft 0kts
05-Jan-19 12:46 35.103425 -120.624294 146 18ft 3kts
05-Jan-19 12:47 35.103422 -120.625184 215 18ft 5kts
05-Jan-19 12:48 35.099169 -120.611174 110 379ft 87kts
05-Jan-19 12:49 35.096597 -120.590721 88 1673ft 53kts
05-Jan-19 12:50 35.093559 -120.564110 113 2235ft 90kts
05-Jan-19 12:51 35.088469 -120.540046 116 3355ft 60kts
05-Jan-19 12:52 35.083584 -120.517493 116 4152ft 73kts
05-Jan-19 12:53 35.079241 -120.495019 117 5130ft 67kts
05-Jan-19 12:54 35.074215 -120.469201 113 5556ft 102kts
05-Jan-19 12:55 35.069245 -120.439852 119 6028ft 79kts
05-Jan-19 12:56 35.063576 -120.408661 113 6017ft 101kts
05-Jan-19 12:57 35.057583 -120.374005 112 5984ft 105kts
05-Jan-19 12:58 35.051513 -120.338871 114 5953ft 105kts
05-Jan-19 12:59 35.045425 -120.303786 114 5938ft 105kts
05-Jan-19 13:00 35.039473 -120.268819 113 5926ft 104kts
05-Jan-19 13:01 35.034305 -120.233709 113 5913ft 104kts
05-Jan-19 13:02 35.028470 -120.198976 113 5899ft 104kts
05-Jan-19 13:03 35.022525 -120.164709 113 5888ft 103kts
05-Jan-19 13:04 35.016590 -120.130568 112 5874ft 101kts
05-Jan-19 13:05 35.010721 -120.096943 110 5868ft 101kts
05-Jan-19 13:06 35.004907 -120.063651 110 5847ft 99kts
05-Jan-19 13:07 35.000454 -120.038188 109 5832ft 99kts
05-Jan-19 13:08 34.994681 -120.005254 108 5816ft 99kts
05-Jan-19 13:09 34.988814 -119.971929 107 5654ft 106kts
05-Jan-19 13:10 34.986883 -119.933138 98 4969ft 120kts
05-Jan-19 13:11 34.978219 -119.895292 105 4155ft 110kts
05-Jan-19 13:12 34.971385 -119.859576 105 3633ft 107kts
05-Jan-19 13:13 34.964523 -119.823496 103 3149ft 100kts
05-Jan-19 13:14 34.959893 -119.792175 98 3148ft 91kts
05-Jan-19 13:15 34.953397 -119.762710 106 3152ft 89kts
05-Jan-19 13:16 34.946831 -119.730262 104 2856ft 97kts
05-Jan-19 13:17 34.940157 -119.699804 121 2857ft 91kts
05-Jan-19 13:18 34.934699 -119.673626 39 2811ft 106kts
05-Jan-19 13:19 34.958602 -119.688488 286 2549ft 82kts
05-Jan-19 13:20 34.956394 -119.693324 68 2449ft 49kts
05-Jan-19 13:21 34.947738 -119.705837 68 2439ft 67kts
05-Jan-19 13:22 34.942174 -119.691103 114 2207ft 37kts
05-Jan-19 13:23 34.942533 -119.689909 306 2207ft 0kts
05-Jan-19 13:24 34.942533 -119.689909 305 2207ft 0kts
05-Jan-19 13:25 34.942533 -119.689909 306 2207ft 0kts
05-Jan-19 13:26 34.942533 -119.689909 306 2207ft 0kts
05-Jan-19 13:27 34.942533 -119.689909 306 2207ft 0kts
05-Jan-19 13:28 34.942533 -119.689909 305 2207ft 0kts
05-Jan-19 13:29 34.942533 -119.689909 305 2207ft 0kts
05-Jan-19 13:30 34.942533 -119.689909 305 2207ft 0kts
05-Jan-19 13:31 34.942533 -119.689909 305 2207ft 0kts
05-Jan-19 13:32 34.942533 -119.689909 305 2207ft 0kts
05-Jan-19 13:33 34.942533 -119.689909 306 2207ft 0kts
05-Jan-19 13:34 34.942533 -119.689909 306 2207ft 0kts
05-Jan-19 13:35 33.673646 -117.864637 117 49ft 0kts
05-Jan-19 13:36 33.673646 -117.864637 117 49ft 0kts

Navigation Log

Ident Type
Flight plan parsing failed, navigation log unavailable